WetterOnline ( https://www.wetteronline.ch )

Wetter aktuell Plön

Aktuelles Wetter: Dörnick (28m)

6-stündlich | Neueste Meldungen
Ortszeit Temperatur Wetter
Fr, 23.08. 14:00 23.7° C leicht bewölkt
Fr, 23.08. 8:00 15.4° C leicht bewölkt
Fr, 23.08. 2:00 11.1° C wolkenlos
Do, 22.08. 20:00 21.2° C leicht bewölkt
Do, 22.08. 14:00 23.8° C leicht bewölkt
Do, 22.08. 8:00 14.9° C leicht bewölkt
Do, 22.08. 2:00 9.0° C wolkenlos
Mi, 21.08. 20:00 17.6° C fast wolkenlos
Ortszeit Temperatur Wetter
Fr, 23.08. 17:00 24.5° C leicht bewölkt
Fr, 23.08. 16:50 24.5° C wolkig
Fr, 23.08. 16:40 24.3° C wolkig
Fr, 23.08. 16:30 24.5° C wolkig
Fr, 23.08. 16:20 24.5° C wolkig
Fr, 23.08. 16:10 24.5° C wolkig
Fr, 23.08. 16:00 24.2° C leicht bewölkt
Fr, 23.08. 15:30 24.0° C wolkig
Fr, 23.08. 15:00 23.6° C leicht bewölkt
Fr, 23.08. 14:30 23.8° C wolkig
Fr, 23.08. 14:00 23.7° C leicht bewölkt
Ortszeit Relative Feuchte Sichtweite
Fr, 23.08. 14:00 34% 9 km
Fr, 23.08. 8:00 82% 7 km
Fr, 23.08. 2:00 97% 6 km
Do, 22.08. 20:00 56% 30 km
Do, 22.08. 14:00 41% 8 km
Do, 22.08. 8:00 78% 22 km
Do, 22.08. 2:00 99% 11 km
Mi, 21.08. 20:00 64% 35 km
Ortszeit Relative Feuchte Sichtweite
Fr, 23.08. 17:00 45% 24 km
Fr, 23.08. 16:50 45% -
Fr, 23.08. 16:40 46% -
Fr, 23.08. 16:30 44% 18 km
Fr, 23.08. 16:20 44% -
Fr, 23.08. 16:10 41% -
Fr, 23.08. 16:00 41% 21 km
Fr, 23.08. 15:30 36% 16 km
Fr, 23.08. 15:00 36% 30 km
Fr, 23.08. 14:30 32% 18 km
Fr, 23.08. 14:00 34% 9 km
Ortszeit Niederschlagsmenge Niederschlagsart
Fr, 23.08. 14:00 0.0 l/m2 in 6 Std. -
Fr, 23.08. 8:00 0.0 l/m2 in 12 Std. -
Fr, 23.08. 2:00 0.0 l/m2 in 6 Std. -
Do, 22.08. 20:00 0.0 l/m2 in 12 Std. -
Do, 22.08. 14:00 0.0 l/m2 in 6 Std. -
Do, 22.08. 8:00 0.0 l/m2 in 12 Std. -
Do, 22.08. 2:00 0.0 l/m2 in 6 Std. -
Mi, 21.08. 20:00 0.1 l/m2 in 12 Std. Regen
Ortszeit Niederschlagsmenge Niederschlagsart
Fr, 23.08. 17:00 0.0 l/m2 in 1 Std. -
Fr, 23.08. 16:50 keine Meldung -
Fr, 23.08. 16:40 keine Meldung -
Fr, 23.08. 16:30 0.0 l/m2 in 1 Std. -
Fr, 23.08. 16:20 keine Meldung -
Fr, 23.08. 16:10 keine Meldung -
Fr, 23.08. 16:00 0.0 l/m2 in 1 Std. -
Fr, 23.08. 15:30 0.0 l/m2 in 1 Std. -
Fr, 23.08. 15:00 0.0 l/m2 in 1 Std. -
Fr, 23.08. 14:30 0.0 l/m2 in 1 Std. -
Fr, 23.08. 14:00 0.0 l/m2 in 1 Std. -
Ortszeit Stärke Spitze Richtung
km/h Bft. km/h Grad Sektor
Fr, 23.08. 14:00 19 3 30 230° SW
Fr, 23.08. 8:00 0 0 7 - -
Fr, 23.08. 2:00 4 1 14 280° W
Do, 22.08. 20:00 4 1 40 210° SW
Do, 22.08. 14:00 22 4 37 210° SW
Do, 22.08. 8:00 6 1 15 140° SO
Do, 22.08. 2:00 4 1 4 210° SW
Mi, 21.08. 20:00 6 1 31 290° W
Ortszeit Stärke Spitze Richtung
km/h Bft. km/h Grad Sektor
Fr, 23.08. 17:00 13 3 20 250° W
Fr, 23.08. 16:50 13 3 - 250° W
Fr, 23.08. 16:40 11 2 - 260° W
Fr, 23.08. 16:30 13 3 20 240° SW
Fr, 23.08. 16:20 13 3 - 240° SW
Fr, 23.08. 16:10 11 2 - 290° W
Fr, 23.08. 16:00 13 3 26 240° SW
Fr, 23.08. 15:30 15 3 26 230° SW
Fr, 23.08. 15:00 13 3 22 240° SW
Fr, 23.08. 14:30 14 3 22 240° SW
Fr, 23.08. 14:00 19 3 28 230° SW
Ortszeit Untergrenze Bedeckung Gattung
total tief tief mittel hoch
Fr, 23.08. 14:00 8400 m 8/8 0/8 - - -
Fr, 23.08. 8:00 9000 m 3/8 0/8 - - -
Fr, 23.08. 2:00 - 0/8 0/8 - - -
Do, 22.08. 20:00 8700 m 4/8 0/8 - - -
Do, 22.08. 14:00 10500 m 3/8 0/8 - - -
Do, 22.08. 8:00 10500 m 5/8 0/8 - - -
Do, 22.08. 2:00 - 0/8 0/8 - - -
Mi, 21.08. 20:00 1800 m 1/8 1/8 - - -
Ortszeit Bedeckungsgrad in Achtel und Wolkenuntergrenze
Fr, 23.08. 17:00 8(8400m)
Fr, 23.08. 16:50 8(8400m)
Fr, 23.08. 16:40 8(8700m) 8(10500m)
Fr, 23.08. 16:30 1(8400m) 8(9000m) 8(9000m)
Fr, 23.08. 16:20 1(8400m) 8(9000m) 8(9000m)
Fr, 23.08. 16:10 3(7800m) 8(9000m) 8(9000m)
Fr, 23.08. 16:00 7(7800m) 8(8700m) 8(10500m)
Fr, 23.08. 15:30 2(7800m) 8(8700m) 8(10500m)
Fr, 23.08. 15:00 6(7800m) 8(8400m) 8(9000m)
Fr, 23.08. 14:30 2(8100m) 8(9000m) 8(10500m)
Fr, 23.08. 14:00 5(8400m) 8(9000m) 8(10500m)
Ortszeit Luftdruck NN (hPa) Tendenz (hPa in 3 Std.)
Fr, 23.08. 14:00 1026 - 0,1
Fr, 23.08. 8:00 1026 + 0,2
Fr, 23.08. 2:00 1026 + 0,3
Do, 22.08. 20:00 1024 - 0,5
Do, 22.08. 14:00 1025 - 1,3
Do, 22.08. 8:00 1027 - 0,5
Do, 22.08. 2:00 1028 0,0
Mi, 21.08. 20:00 1028 + 0,2
Ortszeit Luftdruck NN (hPa) Tendenz (hPa in 3 Std.)
Fr, 23.08. 17:00 1026 - 0,6
Fr, 23.08. 16:50 1026 keine Meldung
Fr, 23.08. 16:40 1026 keine Meldung
Fr, 23.08. 16:30 1026 - 0,4
Fr, 23.08. 16:20 1026 keine Meldung
Fr, 23.08. 16:10 1026 keine Meldung
Fr, 23.08. 16:00 1026 - 0,4
Fr, 23.08. 15:30 1026 - 0,4
Fr, 23.08. 15:00 1026 - 0,2
Fr, 23.08. 14:30 1026 - 0,1
Fr, 23.08. 14:00 1026 - 0,1
Ortszeit Schneehöhe (cm)
Fr, 23.08. 14:00 -
Fr, 23.08. 8:00 -
Fr, 23.08. 2:00 -
Do, 22.08. 20:00 -
Do, 22.08. 14:00 -
Do, 22.08. 8:00 -
Do, 22.08. 2:00 -
Mi, 21.08. 20:00 -
Ortszeit Schneehöhe (cm)
Fr, 23.08. 17:00 -
Fr, 23.08. 16:50 -
Fr, 23.08. 16:40 -
Fr, 23.08. 16:30 -
Fr, 23.08. 16:20 -
Fr, 23.08. 16:10 -
Fr, 23.08. 16:00 -
Fr, 23.08. 15:30 -
Fr, 23.08. 15:00 -
Fr, 23.08. 14:30 -
Fr, 23.08. 14:00 -
Link zu dieser Seite / Seite empfehlen

Das Wetter in ...